Terminal Aerodrome Forecast
Issued by NWS Twin Cities, MN

Home | Current Version | Previous Version | Graphics & Text | Print | Product List | Glossary On
Versions: 1 2 3 4 5 6 7 8 9 10 11 12 13 14
000
FTUS43 KMPX 200900 AAA
TAFSTC
TAF AMD
KSTC 200950Z 2010/2106 VRB02KT 3SM BR SCT250
      TEMPO 2010/2013 1/2SM FG VV002
     FM201330 05003KT P6SM FEW002
      TEMPO 2014/2015 5SM BR
     FM201500 07004KT P6SM SCT250=

USA.gov is the U.S. government's official web portal to all federal, state and local government web resources and services.